createdAt,value
2022-10-10T00:01:38.358Z,72.96
2022-10-10T00:04:07.561Z,73.60
2022-10-10T00:06:37.605Z,73.99
2022-10-10T00:09:07.594Z,73.54
2022-10-10T00:11:36.653Z,73.51
2022-10-10T00:14:06.761Z,73.63
2022-10-10T00:16:35.824Z,74.33
2022-10-10T00:19:04.712Z,74.08
2022-10-10T00:21:33.613Z,74.03
2022-10-10T00:24:03.910Z,73.17
2022-10-10T00:26:32.634Z,74.00
2022-10-10T00:29:01.253Z,74.71
2022-10-10T00:31:30.133Z,74.01
2022-10-10T00:33:59.559Z,74.30
2022-10-10T00:36:28.255Z,73.87
2022-10-10T00:38:57.106Z,73.90
2022-10-10T00:41:27.266Z,74.23
2022-10-10T00:44:07.293Z,74.51
2022-10-10T00:46:36.733Z,74.83
2022-10-10T00:49:08.653Z,74.84
2022-10-10T00:51:38.326Z,74.94
2022-10-10T00:54:11.248Z,74.60
2022-10-10T00:56:45.303Z,75.23
2022-10-10T00:59:15.527Z,74.93
2022-10-10T01:01:44.464Z,75.02
2022-10-10T01:04:32.983Z,75.24
2022-10-10T01:07:03.592Z,75.21
2022-10-10T01:09:33.741Z,75.58
2022-10-10T01:12:18.740Z,75.29
2022-10-10T01:14:57.016Z,75.50
2022-10-10T01:17:31.862Z,75.19
2022-10-10T01:20:32.794Z,76.06
2022-10-10T01:23:37.046Z,75.44
2022-10-10T01:26:27.341Z,75.78
2022-10-10T01:29:04.711Z,75.86
2022-10-10T01:31:40.262Z,75.58
2022-10-10T01:34:17.682Z,75.99
2022-10-10T01:36:54.957Z,75.52
2022-10-10T01:39:31.451Z,75.54
2022-10-10T01:42:06.972Z,75.02
2022-10-10T01:44:37.003Z,75.25
2022-10-10T01:47:05.787Z,76.18
2022-10-10T01:49:35.424Z,75.73
2022-10-10T01:52:12.356Z,75.66
2022-10-10T01:54:51.406Z,75.38
2022-10-10T01:57:26.877Z,75.67
2022-10-10T02:00:06.116Z,75.73
2022-10-10T02:02:40.387Z,75.51
2022-10-10T02:05:17.217Z,75.72
2022-10-10T02:07:51.497Z,75.62
2022-10-10T02:10:25.426Z,76.08
2022-10-10T02:12:55.874Z,75.78
2022-10-10T02:15:30.415Z,75.65
2022-10-10T02:17:59.384Z,76.20
2022-10-10T02:20:30.481Z,75.84
2022-10-10T02:22:59.455Z,76.03
2022-10-10T02:25:31.338Z,75.89
2022-10-10T02:28:12.910Z,76.53
2022-10-10T02:30:46.997Z,76.02
2022-10-10T02:33:20.996Z,76.07
2022-10-10T02:35:52.165Z,76.05
2022-10-10T02:38:21.865Z,76.33
2022-10-10T02:40:51.069Z,76.15
2022-10-10T02:43:20.630Z,75.95
2022-10-10T02:45:51.237Z,75.93
2022-10-10T02:48:20.358Z,76.24
2022-10-10T02:50:49.450Z,76.01
2022-10-10T02:53:18.259Z,75.50
2022-10-10T02:55:46.674Z,76.59
2022-10-10T02:58:15.576Z,75.86
2022-10-10T03:00:44.235Z,76.69
2022-10-10T03:03:14.360Z,75.82
2022-10-10T03:05:43.717Z,75.88
2022-10-10T03:08:12.384Z,76.59
2022-10-10T03:10:41.129Z,76.54
2022-10-10T03:13:10.000Z,76.54
2022-10-10T03:15:38.658Z,76.17
2022-10-10T03:18:07.578Z,76.06
2022-10-10T03:20:37.515Z,76.69
2022-10-10T03:23:06.156Z,76.51
2022-10-10T03:25:35.200Z,76.42
2022-10-10T03:28:03.697Z,76.73
2022-10-10T03:30:32.300Z,76.38
2022-10-10T03:33:00.945Z,76.17
2022-10-10T03:35:29.699Z,76.00
2022-10-10T03:38:00.075Z,76.56
2022-10-10T03:40:30.195Z,76.93
2022-10-10T03:42:58.905Z,76.60
2022-10-10T03:45:27.692Z,77.14
2022-10-10T03:47:56.278Z,77.39
2022-10-10T03:50:24.984Z,77.54
2022-10-10T03:52:53.682Z,77.82
2022-10-10T03:55:23.985Z,77.57
2022-10-10T03:57:52.555Z,78.03
2022-10-10T04:00:21.554Z,78.32
2022-10-10T04:02:50.482Z,78.04
2022-10-10T04:05:19.378Z,77.77
2022-10-10T04:07:48.091Z,78.28
2022-10-10T04:10:16.939Z,77.59
2022-10-10T04:12:47.029Z,78.11
2022-10-10T04:15:15.920Z,78.15
2022-10-10T04:17:44.446Z,78.40
2022-10-10T04:20:13.344Z,77.95
2022-10-10T04:22:42.996Z,78.39
2022-10-10T04:25:11.718Z,78.28
2022-10-10T04:27:40.545Z,77.84
2022-10-10T04:30:12.786Z,77.52
2022-10-10T04:32:41.507Z,78.17
2022-10-10T04:35:10.845Z,77.91
2022-10-10T04:37:39.545Z,78.10
2022-10-10T04:40:09.528Z,78.41
2022-10-10T04:42:38.398Z,78.50
2022-10-10T04:45:08.131Z,78.28
2022-10-10T04:47:38.228Z,78.56
2022-10-10T04:50:07.969Z,78.34
2022-10-10T04:52:36.367Z,77.53
2022-10-10T04:55:05.759Z,78.34
2022-10-10T04:57:34.632Z,77.80
2022-10-10T05:00:03.259Z,77.68
2022-10-10T05:02:32.008Z,77.83
2022-10-10T05:05:02.062Z,77.67
2022-10-10T05:07:30.736Z,77.86
2022-10-10T05:09:59.382Z,78.08
2022-10-10T05:12:28.106Z,77.69
2022-10-10T05:14:56.680Z,78.16
2022-10-10T05:17:25.433Z,77.81
2022-10-10T05:19:54.096Z,78.17
2022-10-10T05:22:24.082Z,78.63
2022-10-10T05:24:52.849Z,77.84
2022-10-10T05:27:21.490Z,78.31
2022-10-10T05:29:50.129Z,77.73
2022-10-10T05:32:18.814Z,78.07
2022-10-10T05:34:47.526Z,78.93
2022-10-10T05:37:16.511Z,77.92
2022-10-10T05:39:47.739Z,77.93
2022-10-10T05:42:18.093Z,78.23
2022-10-10T05:44:46.670Z,78.39
2022-10-10T05:47:15.351Z,77.70
2022-10-10T05:49:43.963Z,78.13
2022-10-10T05:52:12.733Z,77.72
2022-10-10T05:54:41.352Z,78.21
2022-10-10T05:57:16.066Z,77.81
2022-10-10T05:59:45.325Z,77.87
2022-10-10T06:02:14.929Z,77.33
2022-10-10T06:04:43.363Z,76.99
2022-10-10T06:07:11.959Z,76.74
2022-10-10T06:09:40.765Z,76.14
2022-10-10T06:12:10.745Z,75.98
2022-10-10T06:14:39.503Z,75.93
2022-10-10T06:17:08.140Z,75.24
2022-10-10T06:19:36.775Z,74.81
2022-10-10T06:22:05.659Z,75.01
2022-10-10T06:24:34.994Z,74.62
2022-10-10T06:27:03.748Z,74.32
2022-10-10T06:29:33.854Z,74.61
2022-10-10T06:32:02.558Z,74.06
2022-10-10T06:34:31.601Z,73.62
2022-10-10T06:37:00.183Z,73.96
2022-10-10T06:39:28.815Z,73.83
2022-10-10T06:41:57.427Z,73.45
2022-10-10T06:44:27.733Z,73.14
2022-10-10T06:46:58.325Z,73.03
2022-10-10T06:49:26.993Z,72.71
2022-10-10T06:51:58.406Z,72.72
2022-10-10T06:54:27.180Z,72.58
2022-10-10T06:56:55.783Z,72.42
2022-10-10T06:59:24.475Z,72.00
2022-10-10T07:01:53.263Z,71.54
2022-10-10T07:04:23.407Z,71.37
2022-10-10T07:06:52.613Z,71.08
2022-10-10T07:09:21.232Z,70.80
2022-10-10T07:11:49.734Z,70.67
2022-10-10T07:14:18.396Z,70.51
2022-10-10T07:16:47.108Z,70.40
2022-10-10T07:19:15.775Z,69.28
2022-10-10T07:21:45.773Z,69.67
2022-10-10T07:24:14.533Z,69.46
2022-10-10T07:26:43.036Z,69.01
2022-10-10T07:29:11.747Z,68.74
2022-10-10T07:31:40.334Z,68.62
2022-10-10T07:34:08.938Z,68.07
2022-10-10T07:36:38.401Z,67.53
2022-10-10T07:39:12.743Z,67.70
2022-10-10T07:41:45.188Z,67.91
2022-10-10T07:44:14.057Z,67.26
2022-10-10T07:46:42.775Z,67.02
2022-10-10T07:49:11.556Z,67.00
2022-10-10T07:51:40.672Z,66.35
2022-10-10T07:54:11.615Z,65.77
2022-10-10T07:56:40.217Z,65.99
2022-10-10T07:59:08.726Z,65.79
2022-10-10T08:01:37.421Z,66.12
2022-10-10T08:04:06.038Z,65.91
2022-10-10T08:06:34.625Z,65.99
2022-10-10T08:09:03.297Z,65.79
2022-10-10T08:11:33.349Z,65.40
2022-10-10T08:14:02.231Z,64.64
2022-10-10T08:16:30.756Z,63.63
2022-10-10T08:18:59.439Z,63.27
2022-10-10T08:21:28.158Z,63.61
2022-10-10T08:23:57.487Z,62.92
2022-10-10T08:26:26.148Z,62.96
2022-10-10T08:28:56.397Z,61.92
2022-10-10T08:31:25.227Z,62.31
2022-10-10T08:33:54.095Z,63.13
2022-10-10T08:36:24.996Z,63.01
2022-10-10T08:38:57.794Z,62.68
2022-10-10T08:41:39.703Z,61.67
2022-10-10T08:44:20.088Z,61.03
2022-10-10T08:46:53.950Z,59.88
2022-10-10T08:49:28.469Z,59.48
2022-10-10T08:52:03.229Z,59.03
2022-10-10T08:54:35.787Z,59.02
2022-10-10T08:57:08.118Z,58.89
2022-10-10T08:59:41.401Z,57.70
2022-10-10T09:05:26.487Z,55.07
2022-10-10T09:08:15.645Z,53.85
2022-10-10T09:10:54.816Z,52.36
2022-10-10T09:13:33.507Z,51.85
2022-10-10T09:16:08.150Z,51.83
2022-10-10T09:18:48.250Z,51.10
2022-10-10T09:21:19.854Z,50.15
2022-10-10T09:23:56.708Z,50.28
2022-10-10T09:26:30.060Z,49.81
2022-10-10T09:29:04.463Z,49.69
2022-10-10T09:31:40.056Z,49.54
2022-10-10T09:34:16.086Z,49.79
2022-10-10T09:36:46.417Z,49.30
2022-10-10T09:39:22.874Z,49.84
2022-10-10T09:41:57.863Z,48.76
2022-10-10T09:44:26.696Z,48.24
2022-10-10T09:46:56.793Z,48.88
2022-10-10T09:49:25.384Z,48.23
2022-10-10T09:51:53.891Z,48.88
2022-10-10T09:54:24.073Z,48.76
2022-10-10T09:56:56.784Z,48.43
2022-10-10T09:59:37.600Z,48.21
2022-10-10T10:02:15.473Z,48.35
2022-10-10T10:04:44.605Z,48.14
2022-10-10T10:07:23.361Z,47.92
2022-10-10T10:09:55.023Z,47.60
2022-10-10T10:12:27.301Z,47.60
2022-10-10T10:15:02.513Z,46.84
2022-10-10T10:17:33.822Z,46.80
2022-10-10T10:20:02.869Z,46.58
2022-10-10T10:22:39.372Z,46.60
2022-10-10T10:25:31.845Z,46.05
2022-10-10T10:28:17.034Z,46.65
2022-10-10T10:30:46.502Z,46.72
2022-10-10T10:33:32.061Z,46.62
2022-10-10T10:36:12.904Z,46.69
2022-10-10T10:38:47.429Z,46.80
2022-10-10T10:41:24.234Z,47.18
2022-10-10T10:44:13.895Z,46.76
2022-10-10T10:46:56.611Z,46.38
2022-10-10T10:49:30.672Z,46.33
2022-10-10T10:52:19.413Z,45.78
2022-10-10T10:55:10.552Z,45.67
2022-10-10T11:01:38.341Z,45.47
2022-10-10T11:05:16.680Z,45.18
2022-10-10T11:07:19.415Z,45.38
2022-10-10T11:09:57.082Z,44.96
2022-10-10T11:12:44.344Z,45.13
2022-10-10T11:15:19.589Z,45.46
2022-10-10T11:17:57.115Z,45.33
2022-10-10T11:20:32.407Z,45.08
2022-10-10T11:23:09.559Z,44.76
2022-10-10T11:25:44.355Z,44.52
2022-10-10T11:28:17.915Z,44.38
2022-10-10T11:30:52.633Z,44.95
2022-10-10T11:33:26.065Z,45.36
2022-10-10T11:36:01.742Z,45.29
2022-10-10T11:38:36.803Z,44.91
2022-10-10T11:41:10.962Z,44.66
2022-10-10T11:43:47.872Z,44.55
2022-10-10T11:46:29.045Z,44.34
2022-10-10T11:49:09.020Z,44.34
2022-10-10T11:51:46.325Z,44.43
2022-10-10T11:54:33.189Z,43.99
2022-10-10T11:57:06.716Z,43.80
2022-10-10T11:59:44.525Z,44.11
2022-10-10T12:02:22.314Z,43.97
2022-10-10T12:04:53.789Z,43.14
2022-10-10T12:07:28.688Z,43.42
2022-10-10T12:10:03.856Z,43.67
2022-10-10T12:12:37.725Z,44.12
2022-10-10T12:15:10.861Z,44.77
2022-10-10T12:17:44.256Z,44.87
2022-10-10T12:20:34.540Z,45.09
2022-10-10T12:23:20.697Z,44.81
2022-10-10T12:25:50.750Z,45.02
2022-10-10T12:28:29.629Z,44.93
2022-10-10T12:31:20.066Z,44.73
2022-10-10T12:34:07.748Z,44.06
2022-10-10T12:37:07.512Z,44.10
2022-10-10T12:39:39.222Z,43.99
2022-10-10T12:42:29.608Z,43.90
2022-10-10T12:44:59.839Z,43.69
2022-10-10T12:48:03.934Z,43.99
2022-10-10T12:50:35.609Z,43.73
2022-10-10T12:53:07.358Z,44.07
2022-10-10T12:55:43.708Z,44.04
2022-10-10T12:58:26.600Z,43.87
2022-10-10T13:01:00.875Z,44.06
2022-10-10T13:03:34.400Z,43.99
2022-10-10T13:06:07.755Z,44.10
2022-10-10T13:08:38.629Z,43.75
2022-10-10T13:11:11.830Z,43.81
2022-10-10T13:13:41.778Z,44.17
2022-10-10T13:16:16.219Z,44.36
2022-10-10T13:18:50.915Z,44.18
2022-10-10T13:21:23.965Z,44.42
2022-10-10T13:26:48.596Z,44.38
2022-10-10T13:29:24.897Z,44.45
2022-10-10T13:31:59.644Z,44.51
2022-10-10T13:34:32.238Z,44.60
2022-10-10T13:37:04.318Z,44.63
2022-10-10T13:39:35.841Z,44.42
2022-10-10T13:42:08.168Z,44.66
2022-10-10T13:44:50.917Z,44.73
2022-10-10T13:47:41.199Z,45.15
2022-10-10T13:50:21.841Z,44.39
2022-10-10T13:52:50.627Z,44.82
2022-10-10T13:55:26.828Z,45.29
2022-10-10T13:58:00.906Z,45.23
2022-10-10T14:00:33.472Z,45.33
2022-10-10T14:03:02.347Z,45.54
2022-10-10T14:05:33.607Z,45.57
2022-10-10T14:08:02.338Z,45.76
2022-10-10T14:10:37.268Z,46.13
2022-10-10T14:13:06.317Z,46.33
2022-10-10T14:15:44.485Z,46.75
2022-10-10T14:18:18.707Z,47.50
2022-10-10T14:20:50.298Z,47.87
2022-10-10T14:23:19.147Z,48.30
2022-10-10T14:25:49.416Z,48.55
2022-10-10T14:28:21.692Z,48.48
2022-10-10T14:30:50.515Z,48.88
2022-10-10T14:33:21.357Z,49.42
2022-10-10T14:35:54.104Z,49.35
2022-10-10T14:38:22.894Z,49.47
2022-10-10T14:40:52.764Z,49.60
2022-10-10T14:43:23.024Z,49.95
2022-10-10T14:45:53.917Z,50.15
2022-10-10T14:48:22.881Z,50.08
2022-10-10T14:50:52.925Z,50.30
2022-10-10T14:53:21.617Z,50.51
2022-10-10T14:55:55.266Z,50.70
2022-10-10T14:58:25.157Z,50.89
2022-10-10T15:00:54.582Z,50.87
2022-10-10T15:03:23.479Z,51.04
2022-10-10T15:05:53.963Z,51.41
2022-10-10T15:08:22.704Z,51.32
2022-10-10T15:10:51.273Z,51.67
2022-10-10T15:13:20.344Z,51.93
2022-10-10T15:15:49.598Z,52.16
2022-10-10T15:18:47.847Z,52.31
2022-10-10T15:21:13.418Z,52.73
2022-10-10T15:23:42.239Z,52.84
2022-10-10T15:26:10.879Z,53.08
2022-10-10T15:28:40.164Z,53.34
2022-10-10T15:31:08.865Z,53.74
2022-10-10T15:33:38.807Z,53.91
2022-10-10T15:36:11.066Z,54.23
2022-10-10T15:38:43.047Z,54.16
2022-10-10T15:41:12.007Z,54.65
2022-10-10T15:43:45.594Z,54.75
2022-10-10T15:46:14.819Z,55.28
2022-10-10T15:48:43.444Z,55.52
2022-10-10T15:51:12.488Z,55.55
2022-10-10T15:53:42.552Z,55.85
2022-10-10T15:56:15.055Z,55.87
2022-10-10T15:58:44.817Z,55.49
2022-10-10T16:01:14.241Z,55.73
2022-10-10T16:03:43.000Z,55.90
2022-10-10T16:06:12.510Z,56.15
2022-10-10T16:08:43.614Z,56.34
2022-10-10T16:11:14.607Z,56.54
2022-10-10T16:13:44.537Z,56.75
2022-10-10T16:16:13.624Z,57.10
2022-10-10T16:18:43.367Z,57.18
2022-10-10T16:21:12.937Z,58.45
2022-10-10T16:23:43.099Z,59.76
2022-10-10T16:26:15.580Z,60.28
2022-10-10T16:28:44.821Z,60.88
2022-10-10T16:31:15.885Z,61.83
2022-10-10T16:33:45.199Z,62.48
2022-10-10T16:36:16.580Z,63.36
2022-10-10T16:38:47.229Z,63.24
2022-10-10T16:41:35.637Z,63.82
2022-10-10T16:44:07.049Z,64.32
2022-10-10T16:46:36.585Z,64.55
2022-10-10T16:49:05.167Z,65.20
2022-10-10T16:51:33.777Z,65.11
2022-10-10T16:54:06.522Z,65.30
2022-10-10T16:56:36.557Z,65.84
2022-10-10T16:59:05.058Z,65.61
2022-10-10T17:01:33.670Z,65.85
2022-10-10T17:04:04.564Z,66.48
2022-10-10T17:06:37.652Z,66.08
2022-10-10T17:09:11.585Z,66.63
2022-10-10T17:11:40.357Z,66.38
2022-10-10T17:14:09.106Z,66.53
2022-10-10T17:17:07.017Z,67.01
2022-10-10T17:19:27.028Z,67.44
2022-10-10T17:21:55.646Z,67.63
2022-10-10T17:24:25.687Z,67.84
2022-10-10T17:26:54.455Z,67.68
2022-10-10T17:29:23.878Z,67.74
2022-10-10T17:31:52.553Z,67.93
2022-10-10T17:34:21.205Z,68.25
2022-10-10T17:36:50.315Z,68.79
2022-10-10T17:39:18.905Z,68.88
2022-10-10T17:41:50.325Z,69.26
2022-10-10T17:44:19.020Z,69.41
2022-10-10T17:46:47.606Z,69.87
2022-10-10T17:49:16.345Z,70.42
2022-10-10T17:51:44.999Z,69.94
2022-10-10T17:54:13.675Z,70.05
2022-10-10T17:56:44.978Z,70.15
2022-10-10T17:59:15.047Z,70.79
2022-10-10T18:01:43.780Z,70.75
2022-10-10T18:04:15.436Z,70.82
2022-10-10T18:06:44.288Z,71.14
2022-10-10T18:09:12.878Z,71.18
2022-10-10T18:11:41.597Z,71.50
2022-10-10T18:14:10.337Z,71.15
2022-10-10T18:16:40.522Z,71.42
2022-10-10T18:19:09.451Z,71.64
2022-10-10T18:21:38.202Z,71.55
2022-10-10T18:24:07.440Z,71.44
2022-10-10T18:26:36.720Z,71.97
2022-10-10T18:29:05.613Z,71.90
2022-10-10T18:31:36.070Z,72.01
2022-10-10T18:34:07.761Z,72.13
2022-10-10T18:36:39.607Z,72.41
2022-10-10T18:39:10.967Z,72.27
2022-10-10T18:41:39.679Z,72.27
2022-10-10T18:44:11.560Z,72.55
2022-10-10T18:46:41.111Z,72.61
2022-10-10T18:49:14.382Z,72.75
2022-10-10T18:51:44.837Z,72.72
2022-10-10T18:54:16.168Z,73.02
2022-10-10T18:56:45.760Z,72.80
2022-10-10T18:59:16.881Z,72.84
2022-10-10T19:01:46.765Z,73.14
2022-10-10T19:04:17.669Z,73.27
2022-10-10T19:06:46.747Z,72.95
2022-10-10T19:09:17.481Z,73.35
2022-10-10T19:11:50.250Z,73.43
2022-10-10T19:14:19.510Z,73.57
2022-10-10T19:16:48.889Z,73.58
2022-10-10T19:19:21.082Z,73.75
2022-10-10T19:21:50.173Z,74.21
2022-10-10T19:24:21.600Z,73.98
2022-10-10T19:26:53.587Z,73.89
2022-10-10T19:29:22.746Z,73.95
2022-10-10T19:31:51.834Z,74.16
2022-10-10T19:34:22.054Z,74.19
2022-10-10T19:36:50.984Z,74.03
2022-10-10T19:39:19.723Z,74.27
2022-10-10T19:41:48.856Z,74.30
2022-10-10T19:44:17.695Z,74.20
2022-10-10T19:46:46.362Z,74.16
2022-10-10T19:49:15.005Z,74.10
2022-10-10T19:51:45.181Z,74.17
2022-10-10T19:54:13.893Z,74.29
2022-10-10T19:56:42.468Z,74.35
2022-10-10T19:59:11.207Z,74.35
2022-10-10T20:01:39.969Z,74.33
2022-10-10T20:04:08.665Z,74.48
2022-10-10T20:06:37.328Z,74.55
2022-10-10T20:09:10.795Z,74.48
2022-10-10T20:11:40.993Z,74.57
2022-10-10T20:14:10.697Z,74.58
2022-10-10T20:16:39.407Z,74.42
2022-10-10T20:19:09.037Z,74.57
2022-10-10T20:21:37.472Z,74.62
2022-10-10T20:24:10.942Z,74.62
2022-10-10T20:26:39.666Z,74.53
2022-10-10T20:29:09.065Z,74.54
2022-10-10T20:31:38.367Z,74.51
2022-10-10T20:34:08.156Z,74.54
2022-10-10T20:36:37.293Z,74.60
2022-10-10T20:39:09.745Z,74.68
2022-10-10T20:41:41.357Z,74.40
2022-10-10T20:44:12.797Z,74.47
2022-10-10T20:46:43.983Z,74.59
2022-10-10T20:49:17.292Z,74.71
2022-10-10T20:51:49.128Z,74.52
2022-10-10T20:54:21.835Z,74.58
2022-10-10T20:56:51.005Z,74.67
2022-10-10T20:59:21.319Z,74.56
2022-10-10T21:01:50.193Z,74.70
2022-10-10T21:04:18.927Z,74.49
2022-10-10T21:06:47.695Z,74.99
2022-10-10T21:09:16.715Z,75.04
2022-10-10T21:11:50.060Z,74.97
2022-10-10T21:14:20.057Z,74.96
2022-10-10T21:16:50.738Z,74.91
2022-10-10T21:19:19.551Z,75.09
2022-10-10T21:21:48.218Z,75.06
2022-10-10T21:24:17.086Z,74.88
2022-10-10T21:26:49.317Z,74.98
2022-10-10T21:29:18.051Z,74.94
2022-10-10T21:31:46.665Z,74.97
2022-10-10T21:34:19.011Z,75.13
2022-10-10T21:36:48.364Z,75.21
2022-10-10T21:39:16.984Z,75.21
2022-10-10T21:41:47.030Z,75.22
2022-10-10T21:44:16.824Z,75.54
2022-10-10T21:46:45.167Z,75.47
2022-10-10T21:49:15.653Z,75.43
2022-10-10T21:51:46.847Z,75.63
2022-10-10T21:54:15.958Z,75.40
2022-10-10T21:56:44.589Z,75.69
2022-10-10T21:59:14.707Z,75.80
2022-10-10T22:01:44.622Z,75.70
2022-10-10T22:04:13.315Z,75.82
2022-10-10T22:06:41.904Z,75.75
2022-10-10T22:09:11.477Z,75.70
2022-10-10T22:11:40.078Z,75.59
2022-10-10T22:14:08.854Z,75.57
2022-10-10T22:16:38.960Z,75.69
2022-10-10T22:19:07.704Z,75.63
2022-10-10T22:21:36.316Z,75.62
2022-10-10T22:24:08.265Z,75.63
2022-10-10T22:26:37.100Z,75.31
2022-10-10T22:29:06.407Z,75.26
2022-10-10T22:31:38.120Z,75.22
2022-10-10T22:34:08.354Z,75.32
2022-10-10T22:36:37.377Z,75.31
2022-10-10T22:39:07.554Z,75.39
2022-10-10T22:41:36.674Z,75.41
2022-10-10T22:44:05.646Z,75.52
2022-10-10T22:46:34.509Z,75.62
2022-10-10T22:49:03.306Z,75.63
2022-10-10T22:51:33.165Z,75.57
2022-10-10T22:54:02.309Z,75.59
2022-10-10T22:56:31.164Z,75.50
2022-10-10T22:58:59.853Z,75.90
2022-10-10T23:01:28.638Z,76.00
2022-10-10T23:04:00.352Z,76.26
2022-10-10T23:06:30.045Z,76.15
2022-10-10T23:09:00.006Z,75.73
2022-10-10T23:11:28.764Z,75.97
2022-10-10T23:13:57.475Z,75.82
2022-10-10T23:16:26.093Z,75.92
2022-10-10T23:18:54.767Z,75.71
2022-10-10T23:21:23.597Z,75.54
2022-10-10T23:23:52.433Z,75.74
2022-10-10T23:26:22.604Z,75.87
2022-10-10T23:28:52.104Z,75.78
2022-10-10T23:31:20.963Z,75.79
2022-10-10T23:33:49.607Z,75.99
2022-10-10T23:36:18.475Z,76.06
2022-10-10T23:38:47.116Z,76.14
2022-10-10T23:41:16.076Z,76.17
2022-10-10T23:43:56.706Z,76.15
2022-10-10T23:46:37.974Z,76.30
2022-10-10T23:49:19.317Z,76.29
2022-10-10T23:52:00.710Z,76.34
2022-10-10T23:54:42.118Z,76.35
2022-10-10T23:58:11.514Z,76.78
